createdAt,value
2022-12-28T00:01:21.490Z,10.43
2022-12-28T00:03:49.857Z,11.13
2022-12-28T00:06:19.124Z,8.37
2022-12-28T00:08:46.952Z,11.50
2022-12-28T00:11:28.102Z,10.60
2022-12-28T00:14:02.183Z,11.23
2022-12-28T00:16:31.590Z,10.80
2022-12-28T00:19:01.378Z,11.50
2022-12-28T00:21:29.956Z,10.97
2022-12-28T00:23:59.824Z,10.77
2022-12-28T00:26:28.627Z,10.97
2022-12-28T00:29:03.573Z,10.70
2022-12-28T00:31:35.172Z,10.07
2022-12-28T00:34:03.417Z,10.50
2022-12-28T00:37:07.561Z,9.37
2022-12-28T00:39:20.109Z,11.30
2022-12-28T00:41:48.155Z,8.23
2022-12-28T00:44:15.890Z,9.63
2022-12-28T00:46:45.046Z,9.67
2022-12-28T00:49:12.775Z,9.80
2022-12-28T00:51:40.511Z,9.83
2022-12-28T00:54:08.356Z,9.50
2022-12-28T00:56:36.128Z,6.80
2022-12-28T00:59:03.961Z,7.20
2022-12-28T01:01:31.757Z,8.03
2022-12-28T01:04:01.209Z,7.50
2022-12-28T01:06:29.710Z,7.17
2022-12-28T01:08:57.799Z,7.47
2022-12-28T01:11:27.881Z,6.63
2022-12-28T01:13:57.580Z,6.13
2022-12-28T01:16:27.619Z,5.07
2022-12-28T01:18:57.716Z,6.03
2022-12-28T01:21:29.171Z,6.10
2022-12-28T01:23:59.060Z,6.13
2022-12-28T01:26:27.722Z,4.70
2022-12-28T01:28:55.557Z,5.60
2022-12-28T01:31:23.604Z,4.63
2022-12-28T01:33:51.363Z,4.17
2022-12-28T01:36:21.116Z,4.70
2022-12-28T01:38:54.259Z,4.77
2022-12-28T01:41:23.064Z,5.33
2022-12-28T01:44:24.239Z,4.30
2022-12-28T01:46:55.099Z,3.70
2022-12-28T01:49:27.980Z,4.00
2022-12-28T01:52:00.164Z,4.07
2022-12-28T01:54:31.982Z,3.43
2022-12-28T01:56:59.965Z,3.27
2022-12-28T01:59:30.844Z,3.40
2022-12-28T02:01:58.873Z,2.93
2022-12-28T02:04:27.457Z,2.90
2022-12-28T02:06:56.239Z,3.37
2022-12-28T02:09:31.604Z,2.50
2022-12-28T02:12:01.550Z,3.07
2022-12-28T02:14:29.839Z,2.80
2022-12-28T02:16:57.891Z,3.17
2022-12-28T02:19:38.211Z,2.87
2022-12-28T02:22:28.657Z,2.37
2022-12-28T02:25:16.023Z,2.67
2022-12-28T02:28:00.397Z,2.53
2022-12-28T02:30:34.113Z,2.40
2022-12-28T02:33:08.868Z,2.10
2022-12-28T02:35:49.194Z,1.93
2022-12-28T02:38:23.246Z,2.53
2022-12-28T02:40:55.831Z,2.00
2022-12-28T02:43:23.681Z,2.53
2022-12-28T02:46:10.669Z,1.57
2022-12-28T02:49:00.540Z,1.97
2022-12-28T02:51:43.497Z,1.70
2022-12-28T02:54:43.986Z,1.50
2022-12-28T02:57:24.160Z,2.13
2022-12-28T03:00:05.031Z,1.97
2022-12-28T03:02:54.615Z,1.60
2022-12-28T03:05:51.319Z,1.70
2022-12-28T03:08:23.818Z,1.80
2022-12-28T03:10:58.926Z,1.40
2022-12-28T03:13:45.127Z,2.03
2022-12-28T03:16:19.423Z,2.33
2022-12-28T03:19:10.307Z,1.90
2022-12-28T03:21:58.137Z,1.90
2022-12-28T03:24:45.998Z,1.70
2022-12-28T03:27:33.896Z,1.83
2022-12-28T03:30:24.817Z,1.73
2022-12-28T03:32:52.627Z,1.77
2022-12-28T03:35:26.911Z,1.63
2022-12-28T03:37:59.650Z,1.67
2022-12-28T03:40:34.365Z,2.10
2022-12-28T03:43:23.134Z,1.57
2022-12-28T03:45:57.529Z,2.03
2022-12-28T03:48:26.173Z,2.00
2022-12-28T03:50:56.147Z,1.67
2022-12-28T03:53:30.028Z,1.70
2022-12-28T03:56:07.792Z,1.50
2022-12-28T03:58:35.533Z,1.60
2022-12-28T04:01:03.291Z,1.63
2022-12-28T04:03:31.238Z,1.17
2022-12-28T04:06:00.792Z,1.50
2022-12-28T04:08:29.077Z,1.73
2022-12-28T04:10:59.351Z,1.57
2022-12-28T04:13:29.962Z,1.70
2022-12-28T04:15:59.524Z,2.00
2022-12-28T04:18:27.440Z,1.80
2022-12-28T04:20:55.348Z,1.47
2022-12-28T04:23:24.620Z,2.17
2022-12-28T04:26:02.991Z,1.80
2022-12-28T04:28:31.431Z,1.57
2022-12-28T04:31:00.029Z,1.13
2022-12-28T04:33:28.404Z,1.67
2022-12-28T04:36:04.681Z,1.30
2022-12-28T04:38:33.979Z,2.10
2022-12-28T04:41:02.143Z,2.17
2022-12-28T04:43:30.574Z,1.63
2022-12-28T04:45:59.277Z,2.00
2022-12-28T04:48:27.742Z,1.63
2022-12-28T04:50:56.448Z,2.10
2022-12-28T04:53:24.545Z,1.83
2022-12-28T04:55:55.152Z,1.70
2022-12-28T04:58:22.873Z,2.17
2022-12-28T05:00:50.634Z,1.50
2022-12-28T05:03:18.355Z,1.50
2022-12-28T05:05:46.106Z,2.10
2022-12-28T05:08:13.820Z,1.97
2022-12-28T05:10:41.554Z,1.70
2022-12-28T05:13:10.636Z,1.97
2022-12-28T05:15:39.362Z,2.00
2022-12-28T05:18:07.280Z,2.20
2022-12-28T05:20:35.147Z,2.10
2022-12-28T05:23:02.864Z,2.00
2022-12-28T05:25:30.604Z,1.50
2022-12-28T05:27:58.325Z,2.17
2022-12-28T05:30:27.440Z,1.87
2022-12-28T05:32:55.181Z,1.70
2022-12-28T05:35:22.940Z,1.80
2022-12-28T05:37:50.691Z,2.10
2022-12-28T05:40:18.423Z,1.70
2022-12-28T05:42:51.205Z,1.77
2022-12-28T05:45:19.482Z,2.13
2022-12-28T05:47:48.662Z,1.43
2022-12-28T05:50:16.517Z,1.83
2022-12-28T05:52:44.263Z,1.40
2022-12-28T05:55:12.273Z,1.70
2022-12-28T05:57:40.003Z,2.03
2022-12-28T06:00:09.257Z,1.93
2022-12-28T06:02:37.079Z,1.87
2022-12-28T06:05:07.338Z,1.50
2022-12-28T06:07:35.079Z,1.77
2022-12-28T06:10:02.795Z,1.60
2022-12-28T06:12:30.518Z,1.60
2022-12-28T06:14:58.655Z,1.80
2022-12-28T06:17:26.379Z,2.20
2022-12-28T06:19:54.517Z,1.50
2022-12-28T06:22:23.611Z,1.87
2022-12-28T06:24:51.369Z,2.17
2022-12-28T06:27:19.071Z,1.90
2022-12-28T06:29:46.772Z,2.40
2022-12-28T06:32:14.563Z,1.80
2022-12-28T06:34:42.328Z,2.13
2022-12-28T06:37:10.147Z,1.90
2022-12-28T06:39:39.206Z,1.67
2022-12-28T06:42:07.016Z,2.03
2022-12-28T06:44:37.971Z,2.03
2022-12-28T06:47:10.183Z,2.00
2022-12-28T06:49:37.913Z,1.37
2022-12-28T06:52:05.825Z,2.17
2022-12-28T06:54:33.558Z,1.20
2022-12-28T06:57:02.650Z,1.70
2022-12-28T06:59:30.344Z,2.03
2022-12-28T07:01:58.283Z,2.20
2022-12-28T07:04:26.172Z,1.80
2022-12-28T07:06:54.370Z,2.53
2022-12-28T07:09:22.193Z,2.50
2022-12-28T07:11:51.198Z,2.37
2022-12-28T07:14:20.292Z,2.00
2022-12-28T07:16:48.853Z,2.33
2022-12-28T07:19:16.561Z,2.00
2022-12-28T07:21:44.291Z,2.23
2022-12-28T07:24:12.167Z,2.30
2022-12-28T07:26:40.074Z,2.60
2022-12-28T07:29:09.420Z,1.60
2022-12-28T07:31:45.383Z,2.80
2022-12-28T07:34:14.256Z,2.30
2022-12-28T07:36:42.092Z,1.53
2022-12-28T07:39:10.404Z,2.03
2022-12-28T07:41:38.191Z,3.00
2022-12-28T07:44:07.569Z,2.00
2022-12-28T07:46:37.121Z,2.43
2022-12-28T07:49:06.981Z,2.60
2022-12-28T07:51:36.187Z,2.67
2022-12-28T07:54:04.391Z,2.70
2022-12-28T07:59:04.090Z,3.27
2022-12-28T08:01:33.940Z,2.73
2022-12-28T08:04:04.153Z,3.33
2022-12-28T08:06:35.767Z,2.50
2022-12-28T08:09:04.895Z,2.70
2022-12-28T08:11:35.401Z,2.77
2022-12-28T08:14:03.976Z,3.90
2022-12-28T08:16:33.894Z,2.97
2022-12-28T08:19:01.724Z,3.10
2022-12-28T08:21:31.931Z,3.13
2022-12-28T08:24:02.113Z,2.90
2022-12-28T08:26:31.253Z,3.53
2022-12-28T08:29:01.394Z,2.80
2022-12-28T08:31:31.963Z,2.47
2022-12-28T08:34:01.857Z,3.20
2022-12-28T08:36:29.977Z,3.60
2022-12-28T08:38:58.733Z,3.37
2022-12-28T08:41:29.424Z,3.07
2022-12-28T08:43:57.540Z,2.10
2022-12-28T08:46:27.189Z,3.27
2022-12-28T08:48:56.864Z,3.10
2022-12-28T08:51:26.322Z,3.33
2022-12-28T08:53:54.907Z,3.60
2022-12-28T08:56:24.791Z,3.60
2022-12-28T08:58:54.189Z,3.80
2022-12-28T09:01:23.925Z,3.77
2022-12-28T09:03:53.212Z,2.53
2022-12-28T09:06:22.974Z,4.07
2022-12-28T09:09:06.710Z,3.30
2022-12-28T09:11:35.655Z,2.83
2022-12-28T09:14:06.314Z,2.63
2022-12-28T09:16:34.214Z,3.50
2022-12-28T09:19:04.188Z,3.67
2022-12-28T09:21:34.004Z,2.97
2022-12-28T09:24:02.132Z,4.17
2022-12-28T09:26:32.134Z,3.07
2022-12-28T09:29:01.784Z,3.10
2022-12-28T09:31:33.118Z,2.37
2022-12-28T09:36:49.260Z,3.37
2022-12-28T09:39:19.063Z,2.60
2022-12-28T09:41:51.147Z,3.20
2022-12-28T09:44:47.436Z,3.40
2022-12-28T09:47:37.976Z,2.50
2022-12-28T09:50:29.740Z,1.70
2022-12-28T09:53:24.301Z,2.37
2022-12-28T09:56:00.547Z,2.50
2022-12-28T09:58:30.144Z,2.10
2022-12-28T10:00:59.528Z,2.30
2022-12-28T10:03:36.385Z,2.30
2022-12-28T10:06:06.310Z,3.07
2022-12-28T10:08:42.208Z,2.47
2022-12-28T10:11:09.947Z,2.00
2022-12-28T10:13:55.890Z,2.63
2022-12-28T10:16:26.423Z,2.00
2022-12-28T10:18:56.061Z,2.03
2022-12-28T10:21:32.488Z,2.20
2022-12-28T10:26:49.155Z,2.10
2022-12-28T10:29:21.035Z,1.97
2022-12-28T10:32:00.558Z,2.20
2022-12-28T10:34:34.562Z,1.57
2022-12-28T10:37:14.516Z,1.60
2022-12-28T10:39:50.957Z,1.50
2022-12-28T10:42:22.952Z,1.77
2022-12-28T10:44:51.631Z,1.63
2022-12-28T10:47:31.654Z,1.60
2022-12-28T10:52:57.889Z,1.60
2022-12-28T10:55:30.701Z,1.50
2022-12-28T10:58:32.944Z,1.93
2022-12-28T11:01:07.681Z,1.50
2022-12-28T11:03:38.586Z,1.33
2022-12-28T11:06:13.008Z,2.03
2022-12-28T11:08:42.205Z,1.67
2022-12-28T11:11:19.239Z,1.23
2022-12-28T11:13:51.340Z,1.43
2022-12-28T11:16:19.217Z,1.60
2022-12-28T11:18:46.988Z,1.60
2022-12-28T11:21:19.632Z,1.70
2022-12-28T11:23:48.566Z,1.93
2022-12-28T11:26:16.661Z,1.50
2022-12-28T11:28:46.125Z,1.80
2022-12-28T11:31:20.754Z,1.80
2022-12-28T11:33:51.958Z,1.77
2022-12-28T11:36:23.680Z,1.60
2022-12-28T11:38:52.915Z,1.13
2022-12-28T11:41:51.215Z,1.63
2022-12-28T11:44:54.329Z,1.37
2022-12-28T11:47:31.128Z,1.33
2022-12-28T11:50:39.260Z,1.70
2022-12-28T11:53:22.810Z,1.50
2022-12-28T11:56:07.788Z,1.80
2022-12-28T11:58:48.762Z,1.77
2022-12-28T12:01:42.597Z,1.87
2022-12-28T12:04:42.200Z,1.43
2022-12-28T12:07:47.167Z,1.63
2022-12-28T12:10:35.141Z,1.40
2022-12-28T12:13:40.470Z,1.90
2022-12-28T12:16:20.094Z,1.40
2022-12-28T12:18:51.678Z,1.87
2022-12-28T12:21:30.361Z,1.63
2022-12-28T12:24:06.749Z,2.50
2022-12-28T12:26:40.752Z,2.17
2022-12-28T12:29:16.746Z,1.83
2022-12-28T12:31:48.413Z,2.30
2022-12-28T12:34:24.363Z,1.97
2022-12-28T12:37:20.384Z,2.20
2022-12-28T12:40:16.960Z,1.87
2022-12-28T12:43:11.688Z,1.97
2022-12-28T12:45:48.667Z,2.93
2022-12-28T12:48:35.067Z,2.47
2022-12-28T12:51:15.052Z,2.90
2022-12-28T12:53:58.989Z,2.53
2022-12-28T12:56:41.433Z,3.30
2022-12-28T12:59:28.960Z,2.67
2022-12-28T13:02:08.029Z,3.27
2022-12-28T13:04:37.056Z,2.60
2022-12-28T13:07:07.456Z,2.53
2022-12-28T13:09:37.317Z,3.33
2022-12-28T13:12:14.323Z,3.77
2022-12-28T13:14:45.949Z,3.50
2022-12-28T13:17:19.705Z,3.70
2022-12-28T13:19:47.743Z,3.60
2022-12-28T13:22:31.827Z,3.87
2022-12-28T13:24:59.877Z,3.73
2022-12-28T13:27:34.557Z,3.53
2022-12-28T13:30:04.142Z,3.40
2022-12-28T13:32:38.257Z,3.50
2022-12-28T13:35:19.385Z,3.43
2022-12-28T13:38:00.250Z,3.00
2022-12-28T13:40:28.196Z,3.83
2022-12-28T13:43:13.350Z,3.73
2022-12-28T13:45:47.652Z,3.47
2022-12-28T13:48:17.152Z,3.63
2022-12-28T13:50:45.416Z,4.03
2022-12-28T13:53:17.237Z,3.27
2022-12-28T13:55:49.980Z,3.27
2022-12-28T13:58:23.283Z,3.13
2022-12-28T14:00:54.609Z,3.27
2022-12-28T14:03:22.930Z,2.33
2022-12-28T14:05:55.027Z,3.50
2022-12-28T14:08:23.624Z,3.73
2022-12-28T14:10:52.164Z,3.47
2022-12-28T14:13:21.190Z,3.50
2022-12-28T14:15:49.701Z,3.70
2022-12-28T14:18:19.907Z,3.00
2022-12-28T14:20:49.178Z,3.80
2022-12-28T14:23:21.757Z,3.83
2022-12-28T14:25:50.329Z,2.93
2022-12-28T14:28:23.140Z,3.80
2022-12-28T14:30:54.156Z,3.03
2022-12-28T14:33:25.505Z,3.70
2022-12-28T14:35:56.125Z,3.67
2022-12-28T14:38:26.519Z,3.03
2022-12-28T14:40:55.782Z,3.20
2022-12-28T14:43:26.365Z,3.47
2022-12-28T14:46:07.351Z,3.43
2022-12-28T14:48:40.434Z,3.00
2022-12-28T14:51:26.475Z,3.07
2022-12-28T14:54:17.851Z,3.77
2022-12-28T14:56:47.070Z,4.03
2022-12-28T14:59:21.281Z,3.90
2022-12-28T15:01:49.695Z,3.97
2022-12-28T15:04:38.379Z,4.27
2022-12-28T15:07:07.969Z,4.37
2022-12-28T15:09:36.427Z,4.13
2022-12-28T15:12:11.996Z,3.00
2022-12-28T15:14:39.786Z,4.80
2022-12-28T15:17:08.304Z,3.90
2022-12-28T15:19:37.475Z,3.47
2022-12-28T15:22:05.395Z,4.43
2022-12-28T15:24:34.556Z,3.97
2022-12-28T15:27:02.773Z,3.80
2022-12-28T15:32:18.462Z,3.87
2022-12-28T15:34:47.593Z,4.70
2022-12-28T15:37:15.360Z,4.20
2022-12-28T15:39:43.178Z,2.97
2022-12-28T15:42:10.908Z,4.50
2022-12-28T15:44:38.709Z,3.90
2022-12-28T15:47:06.872Z,4.33
2022-12-28T15:49:35.555Z,4.33
2022-12-28T15:52:04.865Z,5.37
2022-12-28T15:54:32.577Z,4.03
2022-12-28T15:57:00.308Z,4.23
2022-12-28T15:59:28.162Z,5.00
2022-12-28T16:01:56.151Z,4.27
2022-12-28T16:04:24.017Z,4.63
2022-12-28T16:06:51.769Z,3.67
2022-12-28T16:09:21.047Z,4.70
2022-12-28T16:11:54.692Z,4.60
2022-12-28T16:14:22.939Z,5.10
2022-12-28T16:16:51.368Z,3.60
2022-12-28T16:19:19.375Z,4.80
2022-12-28T16:21:49.408Z,3.53
2022-12-28T16:24:17.618Z,5.00
2022-12-28T16:26:47.057Z,5.00
2022-12-28T16:29:14.817Z,6.27
2022-12-28T16:31:42.775Z,4.47
2022-12-28T16:34:13.191Z,5.37
2022-12-28T16:36:41.075Z,5.10
2022-12-28T16:39:14.402Z,5.80
2022-12-28T16:41:42.334Z,4.50
2022-12-28T16:44:14.744Z,5.13
2022-12-28T16:46:42.563Z,5.70
2022-12-28T16:49:11.858Z,4.17
2022-12-28T16:51:40.491Z,5.77
2022-12-28T16:54:08.664Z,5.47
2022-12-28T16:56:36.397Z,5.00
2022-12-28T16:59:04.157Z,4.67
2022-12-28T17:01:33.410Z,5.07
2022-12-28T17:04:04.137Z,5.17
2022-12-28T17:06:32.542Z,4.10
2022-12-28T17:09:01.769Z,4.57
2022-12-28T17:11:29.572Z,4.50
2022-12-28T17:14:01.279Z,4.80
2022-12-28T17:16:29.209Z,4.27
2022-12-28T17:18:58.695Z,3.80
2022-12-28T17:21:27.516Z,3.97
2022-12-28T17:23:55.399Z,4.17
2022-12-28T17:26:23.395Z,4.67
2022-12-28T17:28:51.104Z,3.50
2022-12-28T17:31:21.487Z,3.90
2022-12-28T17:33:51.835Z,3.73
2022-12-28T17:36:21.522Z,3.70
2022-12-28T17:38:49.627Z,3.57
2022-12-28T17:41:19.759Z,3.87
2022-12-28T17:43:48.606Z,3.30
2022-12-28T17:46:16.488Z,3.23
2022-12-28T17:48:44.411Z,3.60
2022-12-28T17:51:12.210Z,3.17
2022-12-28T17:53:42.230Z,3.10
2022-12-28T17:56:13.243Z,3.40
2022-12-28T17:58:41.624Z,2.90
2022-12-28T18:01:09.579Z,2.90
2022-12-28T18:03:38.445Z,3.00
2022-12-28T18:06:06.869Z,2.93
2022-12-28T18:08:34.691Z,2.80
2022-12-28T18:11:04.012Z,3.20
2022-12-28T18:13:31.851Z,3.47
2022-12-28T18:15:59.806Z,2.97
2022-12-28T18:18:27.703Z,2.73
2022-12-28T18:21:00.505Z,2.77
2022-12-28T18:23:28.968Z,2.40
2022-12-28T18:26:03.775Z,2.80
2022-12-28T18:28:31.873Z,2.37
2022-12-28T18:31:02.494Z,2.63
2022-12-28T18:33:31.173Z,3.00
2022-12-28T18:35:59.624Z,2.40
2022-12-28T18:38:27.357Z,2.50
2022-12-28T18:40:56.606Z,2.40
2022-12-28T18:43:26.192Z,2.60
2022-12-28T18:45:54.731Z,1.90
2022-12-28T18:48:23.318Z,1.43
2022-12-28T18:50:55.670Z,1.23
2022-12-28T18:53:24.447Z,2.13
2022-12-28T18:55:58.094Z,1.33
2022-12-28T18:58:27.647Z,1.70
2022-12-28T19:00:55.569Z,1.53
2022-12-28T19:03:23.493Z,1.30
2022-12-28T19:06:02.573Z,1.80
2022-12-28T19:08:31.199Z,1.40
2022-12-28T19:10:58.961Z,1.43
2022-12-28T19:13:28.136Z,1.57
2022-12-28T19:15:55.919Z,1.70
2022-12-28T19:18:23.724Z,1.80
2022-12-28T19:20:57.652Z,1.50
2022-12-28T19:23:25.909Z,1.70
2022-12-28T19:25:59.446Z,1.73
2022-12-28T19:28:28.711Z,1.80
2022-12-28T19:31:02.716Z,2.47
2022-12-28T19:33:32.504Z,1.60
2022-12-28T19:36:00.626Z,2.00
2022-12-28T19:38:28.806Z,2.00
2022-12-28T19:40:57.362Z,2.40
2022-12-28T19:43:25.118Z,2.50
2022-12-28T19:45:54.201Z,2.30
2022-12-28T19:48:21.894Z,2.30
2022-12-28T19:50:49.618Z,2.30
2022-12-28T19:53:17.330Z,2.10
2022-12-28T19:55:45.033Z,2.97
2022-12-28T19:58:12.845Z,2.90
2022-12-28T20:00:40.792Z,2.67
2022-12-28T20:03:10.618Z,3.53
2022-12-28T20:05:38.440Z,2.77
2022-12-28T20:08:06.734Z,4.00
2022-12-28T20:10:34.479Z,3.20
2022-12-28T20:13:02.219Z,3.37
2022-12-28T20:15:29.961Z,3.37
2022-12-28T20:17:57.700Z,3.43
2022-12-28T20:20:27.607Z,3.53
2022-12-28T20:22:58.333Z,2.93
2022-12-28T20:25:26.134Z,2.97
2022-12-28T20:27:53.890Z,3.40
2022-12-28T20:30:21.694Z,2.80
2022-12-28T20:32:49.381Z,3.77
2022-12-28T20:35:17.197Z,3.30
2022-12-28T20:37:46.316Z,3.50
2022-12-28T20:40:14.089Z,3.63
2022-12-28T20:42:59.044Z,3.23
2022-12-28T20:45:26.764Z,3.37
2022-12-28T20:47:55.104Z,3.10
2022-12-28T20:50:22.829Z,3.13
2022-12-28T20:52:54.743Z,3.00
2022-12-28T20:55:22.479Z,3.53
2022-12-28T20:57:50.234Z,2.90
2022-12-28T21:00:19.053Z,3.40
2022-12-28T21:02:47.057Z,3.70
2022-12-28T21:05:15.346Z,3.30
2022-12-28T21:07:43.070Z,2.50
2022-12-28T21:10:12.307Z,2.83
2022-12-28T21:12:40.055Z,2.90
2022-12-28T21:15:08.800Z,2.53
2022-12-28T21:17:36.737Z,2.97
2022-12-28T21:20:04.839Z,2.97
2022-12-28T21:22:32.566Z,2.90
2022-12-28T21:25:00.282Z,3.03
2022-12-28T21:27:29.482Z,2.87
2022-12-28T21:29:57.184Z,2.87
2022-12-28T21:32:24.927Z,3.20
2022-12-28T21:34:52.669Z,3.00
2022-12-28T21:37:35.651Z,2.80
2022-12-28T21:40:05.376Z,3.10
2022-12-28T21:42:35.161Z,2.70
2022-12-28T21:45:03.548Z,3.17
2022-12-28T21:47:31.429Z,2.60
2022-12-28T21:49:59.144Z,3.00
2022-12-28T21:52:26.935Z,3.43
2022-12-28T21:54:54.630Z,2.53
2022-12-28T21:57:22.655Z,3.30
2022-12-28T21:59:52.280Z,2.53
2022-12-28T22:02:38.298Z,2.30
2022-12-28T22:05:24.359Z,2.53
2022-12-28T22:08:13.135Z,3.10
2022-12-28T22:10:58.610Z,2.23
2022-12-28T22:13:26.311Z,2.90
2022-12-28T22:15:57.859Z,2.87
2022-12-28T22:21:13.746Z,2.27
2022-12-28T22:23:41.511Z,2.60
2022-12-28T22:26:09.267Z,2.17
2022-12-28T22:28:37.166Z,2.20
2022-12-28T22:31:07.213Z,2.80
2022-12-28T22:33:35.038Z,2.83
2022-12-28T22:36:10.168Z,2.70
2022-12-28T22:38:37.887Z,2.23
2022-12-28T22:41:05.791Z,2.70
2022-12-28T22:43:33.545Z,2.73
2022-12-28T22:46:02.941Z,2.70
2022-12-28T22:48:32.788Z,2.27
2022-12-28T22:51:04.677Z,2.20
2022-12-28T22:53:32.813Z,2.63
2022-12-28T22:56:01.733Z,2.30
2022-12-28T22:58:29.812Z,2.17
2022-12-28T23:01:07.951Z,1.90
2022-12-28T23:03:38.611Z,2.90
2022-12-28T23:06:06.941Z,2.70
2022-12-28T23:08:34.939Z,2.23
2022-12-28T23:11:04.535Z,3.07
2022-12-28T23:13:34.267Z,3.07
2022-12-28T23:16:03.808Z,2.53
2022-12-28T23:18:49.209Z,2.37
2022-12-28T23:21:39.244Z,2.33
2022-12-28T23:24:28.563Z,2.13
2022-12-28T23:27:14.024Z,3.07
2022-12-28T23:29:41.955Z,3.00
2022-12-28T23:32:09.700Z,2.87
2022-12-28T23:34:37.442Z,3.70
2022-12-28T23:37:06.725Z,3.30
2022-12-28T23:39:34.471Z,3.27
2022-12-28T23:42:02.225Z,3.27
2022-12-28T23:44:30.183Z,2.33
2022-12-28T23:46:59.540Z,3.07
2022-12-28T23:49:27.991Z,2.60
2022-12-28T23:51:55.744Z,2.30
2022-12-28T23:54:24.892Z,3.37
2022-12-28T23:56:52.625Z,3.17
2022-12-28T23:59:20.362Z,2.90
